sensor_id;sensor_type;location;lat;lon;timestamp;pressure;altitude;pressure_sealevel;temperature;humidity
62789;BME280;66401;42.016;21.454;2024-02-28T00:00:10;98524.16;;;12.67;71.12
62789;BME280;66401;42.016;21.454;2024-02-28T00:02:37;98534.97;;;12.64;71.22
62789;BME280;66401;42.016;21.454;2024-02-28T00:05:03;98529.94;;;12.63;71.94
62789;BME280;66401;42.016;21.454;2024-02-28T00:07:28;98534.97;;;12.64;71.94
62789;BME280;66401;42.016;21.454;2024-02-28T00:09:55;98528.34;;;12.61;71.17
62789;BME280;66401;42.016;21.454;2024-02-28T00:12:23;98526.53;;;12.62;71.68
62789;BME280;66401;42.016;21.454;2024-02-28T00:14:50;98530.16;;;12.61;72.07
62789;BME280;66401;42.016;21.454;2024-02-28T00:17:17;98533.34;;;12.50;72.92
62789;BME280;66401;42.016;21.454;2024-02-28T00:19:42;98537.97;;;12.48;72.87
62789;BME280;66401;42.016;21.454;2024-02-28T00:22:09;98536.97;;;12.49;72.61
62789;BME280;66401;42.016;21.454;2024-02-28T00:24:34;98539.78;;;12.47;73.63
62789;BME280;66401;42.016;21.454;2024-02-28T00:27:00;98544.22;;;12.47;73.61
62789;BME280;66401;42.016;21.454;2024-02-28T00:29:26;98535.69;;;12.31;73.46
62789;BME280;66401;42.016;21.454;2024-02-28T00:31:51;98544.78;;;12.42;73.43
62789;BME280;66401;42.016;21.454;2024-02-28T00:34:17;98545.38;;;12.38;73.70
62789;BME280;66401;42.016;21.454;2024-02-28T00:36:42;98537.75;;;12.43;73.47
62789;BME280;66401;42.016;21.454;2024-02-28T00:39:09;98541.78;;;12.45;73.45
62789;BME280;66401;42.016;21.454;2024-02-28T00:41:34;98547.81;;;12.46;73.48
62789;BME280;66401;42.016;21.454;2024-02-28T00:44:02;98538.16;;;12.40;73.81
62789;BME280;66401;42.016;21.454;2024-02-28T00:46:28;98537.31;;;12.32;73.49
62789;BME280;66401;42.016;21.454;2024-02-28T00:48:53;98548.56;;;12.33;73.49
62789;BME280;66401;42.016;21.454;2024-02-28T00:51:19;98541.31;;;12.28;73.50
62789;BME280;66401;42.016;21.454;2024-02-28T00:53:44;98539.31;;;12.30;73.56
62789;BME280;66401;42.016;21.454;2024-02-28T00:56:10;98537.91;;;12.28;74.02
62789;BME280;66401;42.016;21.454;2024-02-28T00:58:35;98549.50;;;12.12;75.41
62789;BME280;66401;42.016;21.454;2024-02-28T01:01:01;98549.88;;;12.09;75.37
62789;BME280;66401;42.016;21.454;2024-02-28T01:03:27;98539.81;;;11.71;76.58
62789;BME280;66401;42.016;21.454;2024-02-28T01:05:52;98551.81;;;11.59;77.39
62789;BME280;66401;42.016;21.454;2024-02-28T01:08:18;98542.50;;;11.50;77.92
62789;BME280;66401;42.016;21.454;2024-02-28T01:10:44;98546.13;;;11.49;78.22
62789;BME280;66401;42.016;21.454;2024-02-28T01:13:10;98547.72;;;11.50;77.73
62789;BME280;66401;42.016;21.454;2024-02-28T01:15:35;98546.31;;;11.26;78.82
62789;BME280;66401;42.016;21.454;2024-02-28T01:18:01;98540.22;;;11.12;79.44
62789;BME280;66401;42.016;21.454;2024-02-28T01:20:26;98534.13;;;11.05;80.79
62789;BME280;66401;42.016;21.454;2024-02-28T01:22:52;98527.69;;;11.01;81.04
62789;BME280;66401;42.016;21.454;2024-02-28T01:25:17;98539.66;;;10.96;81.27
62789;BME280;66401;42.016;21.454;2024-02-28T01:27:44;98526.81;;;10.94;80.97
62789;BME280;66401;42.016;21.454;2024-02-28T01:30:10;98528.50;;;11.02;81.04
62789;BME280;66401;42.016;21.454;2024-02-28T01:32:35;98530.53;;;11.06;80.00
62789;BME280;66401;42.016;21.454;2024-02-28T01:35:02;98545.75;;;11.03;80.90
62789;BME280;66401;42.016;21.454;2024-02-28T01:37:28;98545.31;;;10.99;81.48
62789;BME280;66401;42.016;21.454;2024-02-28T01:39:56;98540.22;;;11.12;81.11
62789;BME280;66401;42.016;21.454;2024-02-28T01:42:21;98551.50;;;11.20;81.10
62789;BME280;66401;42.016;21.454;2024-02-28T01:44:48;98539.44;;;11.18;79.98
62789;BME280;66401;42.016;21.454;2024-02-28T01:47:17;98545.53;;;11.26;79.72
62789;BME280;66401;42.016;21.454;2024-02-28T01:49:43;98538.69;;;11.25;79.86
62789;BME280;66401;42.016;21.454;2024-02-28T01:52:11;98530.00;;;11.17;79.68
62789;BME280;66401;42.016;21.454;2024-02-28T01:54:38;98543.16;;;11.31;80.36
62789;BME280;66401;42.016;21.454;2024-02-28T01:57:05;98539.91;;;11.29;79.76
62789;BME280;66401;42.016;21.454;2024-02-28T01:59:31;98524.56;;;11.12;80.78
62789;BME280;66401;42.016;21.454;2024-02-28T02:01:58;98547.28;;;11.18;80.21
62789;BME280;66401;42.016;21.454;2024-02-28T02:04:23;98550.84;;;11.11;81.71
62789;BME280;66401;42.016;21.454;2024-02-28T02:06:49;98547.66;;;11.15;81.04
62789;BME280;66401;42.016;21.454;2024-02-28T02:09:16;98542.25;;;11.17;80.08
62789;BME280;66401;42.016;21.454;2024-02-28T02:11:42;98552.63;;;11.10;80.84
62789;BME280;66401;42.016;21.454;2024-02-28T02:14:07;98540.56;;;11.09;81.16
62789;BME280;66401;42.016;21.454;2024-02-28T02:16:33;98546.78;;;11.08;80.55
62789;BME280;66401;42.016;21.454;2024-02-28T02:18:58;98544.16;;;11.02;81.87
62789;BME280;66401;42.016;21.454;2024-02-28T02:21:34;98545.47;;;10.91;82.17
62789;BME280;66401;42.016;21.454;2024-02-28T02:24:00;98548.28;;;10.96;81.62
62789;BME280;66401;42.016;21.454;2024-02-28T02:26:25;98553.13;;;10.99;81.58
62789;BME280;66401;42.016;21.454;2024-02-28T02:28:51;98513.31;;;10.63;83.34
62789;BME280;66401;42.016;21.454;2024-02-28T02:31:16;98554.63;;;10.87;82.27
62789;BME280;66401;42.016;21.454;2024-02-28T02:33:42;98553.00;;;10.86;81.47
62789;BME280;66401;42.016;21.454;2024-02-28T02:36:07;98553.50;;;10.75;81.96
62789;BME280;66401;42.016;21.454;2024-02-28T02:38:33;98558.91;;;10.73;82.03
62789;BME280;66401;42.016;21.454;2024-02-28T02:40:58;98558.09;;;10.73;82.28
62789;BME280;66401;42.016;21.454;2024-02-28T02:43:24;98553.50;;;10.75;82.51
62789;BME280;66401;42.016;21.454;2024-02-28T02:45:49;98552.69;;;10.74;82.33
62789;BME280;66401;42.016;21.454;2024-02-28T02:48:15;98555.84;;;10.70;83.33
62789;BME280;66401;42.016;21.454;2024-02-28T02:50:40;98554.25;;;10.69;83.31
62789;BME280;66401;42.016;21.454;2024-02-28T02:53:09;98553.13;;;10.78;83.77
62789;BME280;66401;42.016;21.454;2024-02-28T02:55:35;98560.41;;;10.82;83.06
62789;BME280;66401;42.016;21.454;2024-02-28T02:58:00;98559.03;;;10.86;83.82
62789;BME280;66401;42.016;21.454;2024-02-28T03:00:26;98562.44;;;10.87;83.08
62789;BME280;66401;42.016;21.454;2024-02-28T03:02:51;98555.22;;;10.89;82.37
62789;BME280;66401;42.016;21.454;2024-02-28T03:05:17;98547.41;;;10.89;82.73
62789;BME280;66401;42.016;21.454;2024-02-28T03:07:42;98527.47;;;10.75;81.96
62789;BME280;66401;42.016;21.454;2024-02-28T03:10:08;98555.38;;;11.02;81.94
62789;BME280;66401;42.016;21.454;2024-02-28T03:12:35;98559.22;;;11.06;81.65
62789;BME280;66401;42.016;21.454;2024-02-28T03:15:01;98547.28;;;10.97;82.55
62789;BME280;66401;42.016;21.454;2024-02-28T03:17:28;98537.00;;;10.89;82.05
62789;BME280;66401;42.016;21.454;2024-02-28T03:19:54;98546.69;;;10.95;82.77
62789;BME280;66401;42.016;21.454;2024-02-28T03:22:20;98556.59;;;10.85;82.55
62789;BME280;66401;42.016;21.454;2024-02-28T03:24:45;98551.78;;;10.82;82.65
62789;BME280;66401;42.016;21.454;2024-02-28T03:27:11;98548.28;;;10.75;83.61
62789;BME280;66401;42.016;21.454;2024-02-28T03:29:36;98547.38;;;10.82;83.20
62789;BME280;66401;42.016;21.454;2024-02-28T03:32:03;98556.00;;;10.83;82.59
62789;BME280;66401;42.016;21.454;2024-02-28T03:34:29;98561.25;;;10.89;83.05
62789;BME280;66401;42.016;21.454;2024-02-28T03:36:54;98562.69;;;10.92;82.59
62789;BME280;66401;42.016;21.454;2024-02-28T03:39:20;98562.00;;;10.83;83.51
62789;BME280;66401;42.016;21.454;2024-02-28T03:41:45;98567.41;;;10.82;83.43
62789;BME280;66401;42.016;21.454;2024-02-28T03:44:11;98576.53;;;10.93;83.56
62789;BME280;66401;42.016;21.454;2024-02-28T03:46:36;98580.13;;;10.92;82.32
62789;BME280;66401;42.016;21.454;2024-02-28T03:49:02;98580.19;;;10.98;81.29
62789;BME280;66401;42.016;21.454;2024-02-28T03:51:27;98584.84;;;10.81;81.65
62789;BME280;66401;42.016;21.454;2024-02-28T03:53:54;98582.78;;;10.77;81.58
62789;BME280;66401;42.016;21.454;2024-02-28T03:56:23;98577.75;;;10.75;81.17
62789;BME280;66401;42.016;21.454;2024-02-28T03:58:53;98601.00;;;10.55;82.07
62789;BME280;66401;42.016;21.454;2024-02-28T04:01:19;98599.28;;;10.63;82.33
62789;BME280;66401;42.016;21.454;2024-02-28T04:03:44;98601.00;;;10.55;82.09
62789;BME280;66401;42.016;21.454;2024-02-28T04:06:10;98602.59;;;10.56;82.29
62789;BME280;66401;42.016;21.454;2024-02-28T04:08:36;98602.59;;;10.56;82.68
62789;BME280;66401;42.016;21.454;2024-02-28T04:11:02;98604.84;;;10.59;81.99
62789;BME280;66401;42.016;21.454;2024-02-28T04:13:28;98606.09;;;10.64;82.36
62789;BME280;66401;42.016;21.454;2024-02-28T04:15:53;98609.69;;;10.63;82.27
62789;BME280;66401;42.016;21.454;2024-02-28T04:18:19;98607.44;;;10.59;82.83
62789;BME280;66401;42.016;21.454;2024-02-28T04:20:44;98611.78;;;10.52;82.81
62789;BME280;66401;42.016;21.454;2024-02-28T04:23:10;98611.50;;;10.62;82.47
62789;BME280;66401;42.016;21.454;2024-02-28T04:25:35;98604.59;;;10.40;83.43
62789;BME280;66401;42.016;21.454;2024-02-28T04:28:02;98588.56;;;10.36;82.63
62789;BME280;66401;42.016;21.454;2024-02-28T04:30:28;98600.00;;;10.42;83.05
62789;BME280;66401;42.016;21.454;2024-02-28T04:32:53;98605.69;;;10.45;83.41
62789;BME280;66401;42.016;21.454;2024-02-28T04:35:19;98605.59;;;10.39;83.86
62789;BME280;66401;42.016;21.454;2024-02-28T04:37:45;98612.50;;;10.46;82.90
62789;BME280;66401;42.016;21.454;2024-02-28T04:40:11;98609.00;;;10.39;83.65
62789;BME280;66401;42.016;21.454;2024-02-28T04:42:37;98599.78;;;10.22;84.19
62789;BME280;66401;42.016;21.454;2024-02-28T04:45:03;98607.50;;;10.30;84.29
62789;BME280;66401;42.016;21.454;2024-02-28T04:47:29;98607.50;;;10.30;83.76
62789;BME280;66401;42.016;21.454;2024-02-28T04:49:56;98600.66;;;10.29;83.83
62789;BME280;66401;42.016;21.454;2024-02-28T04:52:21;98613.31;;;10.32;83.73
62789;BME280;66401;42.016;21.454;2024-02-28T04:54:47;98613.31;;;10.32;84.79
62789;BME280;66401;42.016;21.454;2024-02-28T04:57:12;98613.69;;;10.29;85.23
62789;BME280;66401;42.016;21.454;2024-02-28T04:59:38;98611.09;;;10.29;84.16
62789;BME280;66401;42.016;21.454;2024-02-28T05:02:03;98605.69;;;10.16;86.03
62789;BME280;66401;42.016;21.454;2024-02-28T05:04:29;98608.91;;;10.18;85.95
62789;BME280;66401;42.016;21.454;2024-02-28T05:06:54;98613.44;;;10.24;85.95
62789;BME280;66401;42.016;21.454;2024-02-28T05:09:20;98608.22;;;10.24;85.15
62789;BME280;66401;42.016;21.454;2024-02-28T05:11:45;98613.13;;;10.19;86.65
62789;BME280;66401;42.016;21.454;2024-02-28T05:14:11;98615.56;;;10.35;85.52
62789;BME280;66401;42.016;21.454;2024-02-28T05:16:36;98617.91;;;10.30;85.28
62789;BME280;66401;42.016;21.454;2024-02-28T05:19:02;98615.06;;;10.25;85.97
62789;BME280;66401;42.016;21.454;2024-02-28T05:21:29;98617.19;;;10.36;85.27
62789;BME280;66401;42.016;21.454;2024-02-28T05:23:55;98594.91;;;10.19;84.29
62789;BME280;66401;42.016;21.454;2024-02-28T05:26:20;98619.16;;;10.34;84.90
62789;BME280;66401;42.016;21.454;2024-02-28T05:28:45;98619.16;;;10.34;84.70
62789;BME280;66401;42.016;21.454;2024-02-28T05:31:24;98622.66;;;10.41;84.03
62789;BME280;66401;42.016;21.454;2024-02-28T05:33:51;98624.38;;;10.34;85.01
62789;BME280;66401;42.016;21.454;2024-02-28T05:36:18;98622.66;;;10.41;84.96
62789;BME280;66401;42.016;21.454;2024-02-28T05:38:44;98631.59;;;10.68;83.39
62789;BME280;66401;42.016;21.454;2024-02-28T05:41:09;98629.16;;;10.67;82.40
62789;BME280;66401;42.016;21.454;2024-02-28T05:43:37;98641.94;;;10.62;83.85
62789;BME280;66401;42.016;21.454;2024-02-28T05:46:03;98646.50;;;10.74;83.63
62789;BME280;66401;42.016;21.454;2024-02-28T05:48:28;98621.09;;;10.62;82.94
62789;BME280;66401;42.016;21.454;2024-02-28T05:50:54;98643.31;;;10.79;82.85
62789;BME280;66401;42.016;21.454;2024-02-28T05:53:20;98652.66;;;10.88;84.19
62789;BME280;66401;42.016;21.454;2024-02-28T05:55:46;98653.03;;;10.85;83.24
62789;BME280;66401;42.016;21.454;2024-02-28T05:58:13;98648.53;;;10.79;83.53
62789;BME280;66401;42.016;21.454;2024-02-28T06:00:38;98656.16;;;10.80;85.07
62789;BME280;66401;42.016;21.454;2024-02-28T06:03:04;98654.63;;;10.86;84.39
62789;BME280;66401;42.016;21.454;2024-02-28T06:05:32;98660.13;;;10.91;84.12
62789;BME280;66401;42.016;21.454;2024-02-28T06:07:57;98666.06;;;11.06;84.14
62789;BME280;66401;42.016;21.454;2024-02-28T06:10:23;98658.63;;;11.03;83.71
62789;BME280;66401;42.016;21.454;2024-02-28T06:12:48;98671.25;;;11.21;82.71
62789;BME280;66401;42.016;21.454;2024-02-28T06:15:14;98665.34;;;11.34;81.77
62789;BME280;66401;42.016;21.454;2024-02-28T06:17:39;98672.78;;;11.37;80.45
62789;BME280;66401;42.016;21.454;2024-02-28T06:20:05;98679.63;;;11.38;80.95
62789;BME280;66401;42.016;21.454;2024-02-28T06:22:31;98683.59;;;11.34;80.29
62789;BME280;66401;42.016;21.454;2024-02-28T06:24:57;98683.78;;;11.32;80.49
62789;BME280;66401;42.016;21.454;2024-02-28T06:27:22;98694.09;;;11.40;80.53
62789;BME280;66401;42.016;21.454;2024-02-28T06:29:48;98690.31;;;11.43;81.28
62789;BME280;66401;42.016;21.454;2024-02-28T06:32:14;98694.53;;;11.44;80.30
62789;BME280;66401;42.016;21.454;2024-02-28T06:34:40;98690.22;;;11.58;80.24
62789;BME280;66401;42.016;21.454;2024-02-28T06:37:07;98690.06;;;11.59;80.03
62789;BME280;66401;42.016;21.454;2024-02-28T06:39:32;98695.50;;;11.64;79.88
62789;BME280;66401;42.016;21.454;2024-02-28T06:42:00;98688.31;;;11.88;78.60
62789;BME280;66401;42.016;21.454;2024-02-28T06:44:25;98694.34;;;12.16;78.25
62789;BME280;66401;42.016;21.454;2024-02-28T06:46:51;98695.72;;;12.12;77.33
62789;BME280;66401;42.016;21.454;2024-02-28T06:49:16;98692.72;;;12.15;78.55
62789;BME280;66401;42.016;21.454;2024-02-28T06:51:43;98696.03;;;12.30;77.50
62789;BME280;66401;42.016;21.454;2024-02-28T06:54:09;98692.72;;;12.50;76.77
62789;BME280;66401;42.016;21.454;2024-02-28T06:56:43;98701.63;;;12.62;76.62
62789;BME280;66401;42.016;21.454;2024-02-28T06:59:11;98700.59;;;12.63;77.31
62789;BME280;66401;42.016;21.454;2024-02-28T07:01:36;98680.53;;;12.70;77.10
62789;BME280;66401;42.016;21.454;2024-02-28T07:04:02;98696.66;;;12.80;75.96
62789;BME280;66401;42.016;21.454;2024-02-28T07:06:28;98696.63;;;12.67;76.66
62789;BME280;66401;42.016;21.454;2024-02-28T07:08:54;98693.28;;;12.86;75.66
62789;BME280;66401;42.016;21.454;2024-02-28T07:11:19;98703.38;;;12.96;75.84
62789;BME280;66401;42.016;21.454;2024-02-28T07:13:45;98704.00;;;13.05;75.87
62789;BME280;66401;42.016;21.454;2024-02-28T07:16:10;98708.47;;;13.17;76.19
62789;BME280;66401;42.016;21.454;2024-02-28T07:18:36;98700.69;;;13.37;75.19
62789;BME280;66401;42.016;21.454;2024-02-28T07:21:04;98704.72;;;13.46;74.73
62789;BME280;66401;42.016;21.454;2024-02-28T07:23:32;98697.28;;;13.43;74.97
62789;BME280;66401;42.016;21.454;2024-02-28T07:25:57;98712.41;;;13.55;73.54
62789;BME280;66401;42.016;21.454;2024-02-28T07:28:23;98712.00;;;13.51;75.12
62789;BME280;66401;42.016;21.454;2024-02-28T07:30:48;98705.34;;;13.49;73.59
62789;BME280;66401;42.016;21.454;2024-02-28T07:33:14;98716.22;;;13.59;74.34
62789;BME280;66401;42.016;21.454;2024-02-28T07:35:46;98717.44;;;13.69;73.58
62789;BME280;66401;42.016;21.454;2024-02-28T07:38:13;98714.22;;;13.61;73.52
62789;BME280;66401;42.016;21.454;2024-02-28T07:40:38;98716.63;;;13.69;73.45
62789;BME280;66401;42.016;21.454;2024-02-28T07:43:04;98708.97;;;13.48;74.11
62789;BME280;66401;42.016;21.454;2024-02-28T07:45:29;98709.00;;;13.61;73.56
62789;BME280;66401;42.016;21.454;2024-02-28T07:47:55;98720.25;;;13.68;73.05
62789;BME280;66401;42.016;21.454;2024-02-28T07:50:20;98708.59;;;13.84;73.07
62789;BME280;66401;42.016;21.454;2024-02-28T07:52:46;98717.56;;;14.60;71.29
62789;BME280;66401;42.016;21.454;2024-02-28T07:55:11;98722.06;;;14.98;70.52
62789;BME280;66401;42.016;21.454;2024-02-28T07:57:37;98714.44;;;15.66;66.82
62789;BME280;66401;42.016;21.454;2024-02-28T08:00:03;98703.28;;;15.39;66.95
62789;BME280;66401;42.016;21.454;2024-02-28T08:02:29;98698.47;;;15.93;66.51
62789;BME280;66401;42.016;21.454;2024-02-28T08:04:54;98694.97;;;15.99;65.19
62789;BME280;66401;42.016;21.454;2024-02-28T08:07:20;98698.16;;;15.83;65.44
62789;BME280;66401;42.016;21.454;2024-02-28T08:09:46;98709.34;;;16.40;63.25
62789;BME280;66401;42.016;21.454;2024-02-28T08:12:11;98705.09;;;16.39;63.16
62789;BME280;66401;42.016;21.454;2024-02-28T08:14:37;98700.66;;;16.57;62.33
62789;BME280;66401;42.016;21.454;2024-02-28T08:17:02;98697.94;;;16.46;63.87
62789;BME280;66401;42.016;21.454;2024-02-28T08:19:28;98697.09;;;16.52;63.04
62789;BME280;66401;42.016;21.454;2024-02-28T08:21:53;98697.25;;;16.75;61.70
62789;BME280;66401;42.016;21.454;2024-02-28T08:24:19;98680.22;;;16.41;62.74
62789;BME280;66401;42.016;21.454;2024-02-28T08:26:44;98687.66;;;16.63;62.06
62789;BME280;66401;42.016;21.454;2024-02-28T08:29:10;98685.75;;;16.88;61.06
62789;BME280;66401;42.016;21.454;2024-02-28T08:31:43;98688.31;;;16.76;61.29
62789;BME280;66401;42.016;21.454;2024-02-28T08:34:09;98683.91;;;16.88;60.70
62789;BME280;66401;42.016;21.454;2024-02-28T08:36:35;98676.81;;;17.49;58.28
62789;BME280;66401;42.016;21.454;2024-02-28T08:39:01;98678.72;;;17.84;57.30
62789;BME280;66401;42.016;21.454;2024-02-28T08:41:33;98680.44;;;17.78;56.84
62789;BME280;66401;42.016;21.454;2024-02-28T08:43:59;98679.94;;;18.40;56.43
62789;BME280;66401;42.016;21.454;2024-02-28T08:46:24;98679.94;;;19.99;51.67
62789;BME280;66401;42.016;21.454;2024-02-28T08:48:50;98675.41;;;20.16;50.50
62789;BME280;66401;42.016;21.454;2024-02-28T08:51:15;98675.28;;;20.06;49.77
62789;BME280;66401;42.016;21.454;2024-02-28T08:53:41;98677.94;;;19.56;49.30
62789;BME280;66401;42.016;21.454;2024-02-28T08:56:06;98669.63;;;19.19;50.42
62789;BME280;66401;42.016;21.454;2024-02-28T08:58:32;98679.66;;;19.79;50.54
62789;BME280;66401;42.016;21.454;2024-02-28T09:00:57;98677.47;;;19.76;49.23
62789;BME280;66401;42.016;21.454;2024-02-28T09:03:23;98667.44;;;19.44;49.79
62789;BME280;66401;42.016;21.454;2024-02-28T09:05:49;98673.03;;;19.31;49.83
62789;BME280;66401;42.016;21.454;2024-02-28T09:08:14;98681.03;;;19.07;50.25
62789;BME280;66401;42.016;21.454;2024-02-28T09:10:40;98685.28;;;18.80;51.95
62789;BME280;66401;42.016;21.454;2024-02-28T09:13:05;98684.19;;;19.66;50.70
62789;BME280;66401;42.016;21.454;2024-02-28T09:15:33;98678.75;;;19.90;49.12
62789;BME280;66401;42.016;21.454;2024-02-28T09:17:59;98680.41;;;19.96;48.76
62789;BME280;66401;42.016;21.454;2024-02-28T09:20:26;98672.06;;;19.37;49.79
62789;BME280;66401;42.016;21.454;2024-02-28T09:22:51;98671.81;;;18.93;50.96
62789;BME280;66401;42.016;21.454;2024-02-28T09:25:17;98675.94;;;19.17;51.51
62789;BME280;66401;42.016;21.454;2024-02-28T09:27:43;98681.19;;;19.46;49.57
62789;BME280;66401;42.016;21.454;2024-02-28T09:30:09;98683.75;;;19.41;49.60
62789;BME280;66401;42.016;21.454;2024-02-28T09:32:35;98672.09;;;19.08;50.43
62789;BME280;66401;42.016;21.454;2024-02-28T09:35:03;98660.00;;;18.32;50.61
62789;BME280;66401;42.016;21.454;2024-02-28T09:37:29;98671.56;;;18.54;50.40
62789;BME280;66401;42.016;21.454;2024-02-28T09:39:54;98669.38;;;18.51;50.10
62789;BME280;66401;42.016;21.454;2024-02-28T09:42:20;98666.13;;;17.97;51.35
62789;BME280;66401;42.016;21.454;2024-02-28T09:44:45;98658.66;;;17.71;51.77
62789;BME280;66401;42.016;21.454;2024-02-28T09:47:11;98657.94;;;17.64;52.25
62789;BME280;66401;42.016;21.454;2024-02-28T09:49:37;98665.53;;;17.72;51.41
62789;BME280;66401;42.016;21.454;2024-02-28T09:52:03;98651.75;;;17.16;52.81
62789;BME280;66401;42.016;21.454;2024-02-28T09:54:29;98668.06;;;17.37;53.07
62789;BME280;66401;42.016;21.454;2024-02-28T09:56:55;98646.44;;;17.46;51.51
62789;BME280;66401;42.016;21.454;2024-02-28T09:59:23;98657.34;;;17.62;52.50
62789;BME280;66401;42.016;21.454;2024-02-28T10:01:56;98644.59;;;17.77;51.89
62789;BME280;66401;42.016;21.454;2024-02-28T10:04:26;98660.94;;;18.26;50.85
62789;BME280;66401;42.016;21.454;2024-02-28T10:06:53;98646.34;;;19.61;48.62
62789;BME280;66401;42.016;21.454;2024-02-28T10:09:18;98660.38;;;21.31;44.68
62789;BME280;66401;42.016;21.454;2024-02-28T10:11:45;98652.00;;;20.91;45.06
62789;BME280;66401;42.016;21.454;2024-02-28T10:14:12;98640.47;;;20.14;45.38
62789;BME280;66401;42.016;21.454;2024-02-28T10:16:37;98639.38;;;19.09;47.05
62789;BME280;66401;42.016;21.454;2024-02-28T10:19:05;98640.06;;;18.36;49.86
62789;BME280;66401;42.016;21.454;2024-02-28T10:21:30;98636.78;;;17.82;50.61
62789;BME280;66401;42.016;21.454;2024-02-28T10:24:00;98634.31;;;16.92;52.80
62789;BME280;66401;42.016;21.454;2024-02-28T10:26:26;98631.97;;;16.84;54.53
62789;BME280;66401;42.016;21.454;2024-02-28T10:28:51;98629.16;;;16.49;54.54
62789;BME280;66401;42.016;21.454;2024-02-28T10:31:17;98610.34;;;16.15;56.98
62789;BME280;66401;42.016;21.454;2024-02-28T10:33:43;98605.47;;;16.49;55.85
62789;BME280;66401;42.016;21.454;2024-02-28T10:36:08;98611.69;;;18.15;52.63
62789;BME280;66401;42.016;21.454;2024-02-28T10:38:34;98609.38;;;21.19;45.41
62789;BME280;66401;42.016;21.454;2024-02-28T10:41:01;98606.91;;;23.02;40.83
62789;BME280;66401;42.016;21.454;2024-02-28T10:43:28;98610.91;;;23.70;39.78
62789;BME280;66401;42.016;21.454;2024-02-28T10:45:59;98597.47;;;24.32;37.72
62789;BME280;66401;42.016;21.454;2024-02-28T10:48:25;98619.69;;;23.71;38.01
62789;BME280;66401;42.016;21.454;2024-02-28T10:50:52;98620.09;;;20.75;43.20
62789;BME280;66401;42.016;21.454;2024-02-28T10:53:22;98610.75;;;19.68;45.72
62789;BME280;66401;42.016;21.454;2024-02-28T10:55:49;98605.00;;;20.32;44.21
62789;BME280;66401;42.016;21.454;2024-02-28T10:58:15;98614.28;;;19.74;46.07
62789;BME280;66401;42.016;21.454;2024-02-28T11:00:42;98600.03;;;19.25;47.02
62789;BME280;66401;42.016;21.454;2024-02-28T11:03:10;98613.06;;;18.57;49.03
62789;BME280;66401;42.016;21.454;2024-02-28T11:05:41;98608.00;;;18.96;48.96
62789;BME280;66401;42.016;21.454;2024-02-28T11:08:11;98602.63;;;18.63;49.89
62789;BME280;66401;42.016;21.454;2024-02-28T11:10:43;98614.78;;;17.88;52.26
62789;BME280;66401;42.016;21.454;2024-02-28T11:13:10;98604.88;;;17.37;52.22
62789;BME280;66401;42.016;21.454;2024-02-28T11:15:46;98605.75;;;16.77;54.11
62789;BME280;66401;42.016;21.454;2024-02-28T11:18:11;98595.13;;;17.26;54.04
62789;BME280;66401;42.016;21.454;2024-02-28T11:20:38;98620.34;;;16.92;53.96
62789;BME280;66401;42.016;21.454;2024-02-28T11:23:06;98592.81;;;17.06;54.21
62789;BME280;66401;42.016;21.454;2024-02-28T11:25:31;98595.88;;;16.91;55.36
62789;BME280;66401;42.016;21.454;2024-02-28T11:27:57;98583.88;;;17.07;54.33
62789;BME280;66401;42.016;21.454;2024-02-28T11:30:24;98547.53;;;16.74;54.69
62789;BME280;66401;42.016;21.454;2024-02-28T11:32:55;98597.56;;;16.85;55.02
62789;BME280;66401;42.016;21.454;2024-02-28T11:35:23;98598.16;;;16.69;55.35
62789;BME280;66401;42.016;21.454;2024-02-28T11:37:49;98591.94;;;16.15;57.05
62789;BME280;66401;42.016;21.454;2024-02-28T11:40:15;98611.94;;;15.98;57.76
62789;BME280;66401;42.016;21.454;2024-02-28T11:42:41;98593.09;;;15.83;58.59
62789;BME280;66401;42.016;21.454;2024-02-28T11:45:09;98597.72;;;16.06;58.35
62789;BME280;66401;42.016;21.454;2024-02-28T11:47:35;98587.97;;;15.69;59.21
62789;BME280;66401;42.016;21.454;2024-02-28T11:50:03;98594.41;;;16.10;58.92
62789;BME280;66401;42.016;21.454;2024-02-28T11:52:32;98590.84;;;16.05;58.81
62789;BME280;66401;42.016;21.454;2024-02-28T11:54:57;98613.66;;;15.86;59.40
62789;BME280;66401;42.016;21.454;2024-02-28T11:57:23;98594.59;;;15.47;61.13
62789;BME280;66401;42.016;21.454;2024-02-28T11:59:49;98583.78;;;15.62;60.96
62789;BME280;66401;42.016;21.454;2024-02-28T12:02:15;98585.00;;;15.59;60.89
62789;BME280;66401;42.016;21.454;2024-02-28T12:04:46;98589.25;;;15.60;61.71
62789;BME280;66401;42.016;21.454;2024-02-28T12:07:15;98599.03;;;15.46;62.06
62789;BME280;66401;42.016;21.454;2024-02-28T12:09:40;98584.19;;;15.34;62.32
62789;BME280;66401;42.016;21.454;2024-02-28T12:12:06;98564.97;;;15.15;62.80
62789;BME280;66401;42.016;21.454;2024-02-28T12:14:36;98589.13;;;14.92;63.35
62789;BME280;66401;42.016;21.454;2024-02-28T12:17:03;98582.69;;;15.20;62.90
62789;BME280;66401;42.016;21.454;2024-02-28T12:19:28;98590.00;;;15.17;63.70
62789;BME280;66401;42.016;21.454;2024-02-28T12:21:54;98626.22;;;14.96;64.16
62789;BME280;66401;42.016;21.454;2024-02-28T12:24:20;98600.41;;;14.61;65.13
62789;BME280;66401;42.016;21.454;2024-02-28T12:26:46;98604.06;;;14.53;65.71
62789;BME280;66401;42.016;21.454;2024-02-28T12:29:12;98591.53;;;14.62;65.67
62789;BME280;66401;42.016;21.454;2024-02-28T12:31:38;98589.81;;;14.81;64.96
62789;BME280;66401;42.016;21.454;2024-02-28T12:34:04;98590.16;;;14.91;63.88
62789;BME280;66401;42.016;21.454;2024-02-28T12:36:30;98588.22;;;15.11;63.71
62789;BME280;66401;42.016;21.454;2024-02-28T12:38:56;98576.47;;;14.89;64.92
62789;BME280;66401;42.016;21.454;2024-02-28T12:41:23;98571.50;;;15.06;64.13
62789;BME280;66401;42.016;21.454;2024-02-28T12:43:49;98575.16;;;15.30;63.17